createdAt,value
2022-08-25T00:01:50.395Z,16.10
2022-08-25T00:04:40.481Z,14.57
2022-08-25T00:07:31.339Z,16.60
2022-08-25T00:10:19.227Z,15.40
2022-08-25T00:13:08.246Z,18.67
2022-08-25T00:15:56.116Z,18.38
2022-08-25T00:18:46.258Z,21.25
2022-08-25T00:21:35.483Z,18.60
2022-08-25T00:24:24.541Z,18.83
2022-08-25T00:27:12.795Z,18.42
2022-08-25T00:30:00.949Z,16.23
2022-08-25T00:32:55.240Z,16.13
2022-08-25T00:35:46.317Z,18.25
2022-08-25T00:38:35.423Z,17.75
2022-08-25T00:41:26.488Z,17.55
2022-08-25T00:44:18.938Z,20.60
2022-08-25T00:47:09.160Z,17.60
2022-08-25T00:50:01.448Z,16.48
2022-08-25T00:52:55.177Z,20.20
2022-08-25T00:55:44.551Z,18.70
2022-08-25T00:58:33.792Z,18.67
2022-08-25T01:01:21.634Z,15.45
2022-08-25T01:04:09.965Z,14.82
2022-08-25T01:06:59.346Z,16.45
2022-08-25T01:09:48.842Z,15.45
2022-08-25T01:12:38.736Z,16.13
2022-08-25T01:15:26.249Z,18.20
2022-08-25T01:18:14.243Z,19.17
2022-08-25T01:21:03.448Z,15.35
2022-08-25T01:23:53.090Z,14.77
2022-08-25T01:26:41.228Z,16.58
2022-08-25T01:29:30.905Z,19.10
2022-08-25T01:32:18.594Z,20.48
2022-08-25T01:35:07.114Z,18.60
2022-08-25T01:37:56.228Z,16.45
2022-08-25T01:40:44.763Z,18.10
2022-08-25T01:43:38.106Z,17.13
2022-08-25T01:46:25.922Z,19.15
2022-08-25T01:49:13.886Z,18.50
2022-08-25T01:52:06.586Z,16.98
2022-08-25T01:54:55.920Z,20.67
2022-08-25T01:57:43.862Z,30.75
2022-08-25T02:00:31.826Z,45.40
2022-08-25T02:03:20.089Z,28.95
2022-08-25T02:06:08.551Z,22.42
2022-08-25T02:09:00.743Z,22.13
2022-08-25T02:11:50.213Z,25.20
2022-08-25T02:14:38.771Z,36.70
2022-08-25T02:17:26.684Z,20.88
2022-08-25T02:20:14.385Z,19.98
2022-08-25T02:23:02.024Z,18.85
2022-08-25T02:25:50.141Z,22.20
2022-08-25T02:28:39.885Z,21.15
2022-08-25T02:31:28.141Z,31.52
2022-08-25T02:34:16.375Z,19.33
2022-08-25T02:37:04.030Z,19.13
2022-08-25T02:39:51.880Z,19.20
2022-08-25T02:42:39.972Z,17.25
2022-08-25T02:45:31.888Z,16.77
2022-08-25T02:48:19.858Z,17.23
2022-08-25T02:51:09.368Z,18.05
2022-08-25T02:53:57.597Z,19.50
2022-08-25T02:56:45.459Z,16.20
2022-08-25T02:59:33.255Z,17.27
2022-08-25T03:02:22.512Z,16.40
2022-08-25T03:05:11.430Z,14.32
2022-08-25T03:08:00.104Z,13.55
2022-08-25T03:10:48.396Z,14.32
2022-08-25T03:13:40.431Z,15.23
2022-08-25T03:16:28.299Z,16.83
2022-08-25T03:19:18.207Z,16.35
2022-08-25T03:22:06.402Z,16.98
2022-08-25T03:25:15.587Z,16.48
2022-08-25T03:28:02.839Z,16.70
2022-08-25T03:30:55.867Z,14.70
2022-08-25T03:33:44.336Z,15.88
2022-08-25T03:36:33.495Z,19.67
2022-08-25T03:39:22.835Z,16.23
2022-08-25T03:42:12.702Z,16.73
2022-08-25T03:45:00.488Z,17.02
2022-08-25T03:47:50.334Z,16.00
2022-08-25T03:50:38.281Z,16.52
2022-08-25T03:53:27.958Z,17.30
2022-08-25T03:56:15.799Z,17.50
2022-08-25T03:59:03.913Z,19.60
2022-08-25T04:01:55.190Z,20.40
2022-08-25T04:04:43.374Z,18.30
2022-08-25T04:07:31.524Z,18.33
2022-08-25T04:10:21.112Z,19.63
2022-08-25T04:13:09.047Z,18.90
2022-08-25T04:15:56.701Z,19.98
2022-08-25T04:18:45.042Z,19.90
2022-08-25T04:21:33.176Z,28.67
2022-08-25T04:24:22.000Z,29.58
2022-08-25T04:27:11.321Z,24.60
2022-08-25T04:29:59.057Z,22.60
2022-08-25T04:32:48.394Z,22.38
2022-08-25T04:35:36.410Z,33.33
2022-08-25T04:38:24.242Z,32.47
2022-08-25T04:41:14.278Z,25.33
2022-08-25T04:44:03.942Z,24.55
2022-08-25T04:46:51.666Z,24.38
2022-08-25T04:49:39.817Z,24.08
2022-08-25T04:52:27.802Z,22.48
2022-08-25T04:55:15.754Z,32.60
2022-08-25T04:58:03.276Z,24.52
2022-08-25T05:00:52.533Z,24.45
2022-08-25T05:03:40.478Z,35.42
2022-08-25T05:06:28.879Z,28.17
2022-08-25T05:09:16.463Z,25.77
2022-08-25T05:12:08.123Z,28.45
2022-08-25T05:15:18.236Z,29.83
2022-08-25T05:18:07.900Z,25.63
2022-08-25T05:20:57.483Z,26.20
2022-08-25T05:23:46.587Z,26.42
2022-08-25T05:26:36.646Z,24.95
2022-08-25T05:29:24.283Z,24.77
2022-08-25T05:32:12.133Z,25.85
2022-08-25T05:35:01.249Z,27.08
2022-08-25T05:37:49.133Z,27.83
2022-08-25T05:40:36.987Z,30.95
2022-08-25T05:43:24.794Z,29.35
2022-08-25T05:46:14.106Z,24.85
2022-08-25T05:49:02.041Z,24.17
2022-08-25T05:51:51.430Z,26.40
2022-08-25T05:54:40.130Z,26.13
2022-08-25T05:57:27.642Z,22.98
2022-08-25T06:00:15.975Z,27.83
2022-08-25T06:03:02.642Z,28.10
2022-08-25T06:05:50.410Z,30.20
2022-08-25T06:08:41.695Z,34.28
2022-08-25T06:11:29.287Z,31.60
2022-08-25T06:14:17.778Z,40.88
2022-08-25T06:17:05.870Z,39.58
2022-08-25T06:19:54.987Z,37.63
2022-08-25T06:22:43.272Z,37.35
2022-08-25T06:25:35.405Z,31.45
2022-08-25T06:28:23.302Z,33.00
2022-08-25T06:31:11.499Z,34.22
2022-08-25T06:33:59.370Z,36.55
2022-08-25T06:36:48.971Z,40.67
2022-08-25T06:39:37.091Z,42.13
2022-08-25T06:42:26.678Z,34.42
2022-08-25T06:45:14.405Z,33.08
2022-08-25T06:48:02.614Z,35.13
2022-08-25T06:50:50.397Z,32.22
2022-08-25T06:53:38.142Z,27.77
2022-08-25T06:56:26.688Z,32.17
2022-08-25T06:59:17.473Z,28.20
2022-08-25T07:02:06.991Z,31.55
2022-08-25T07:04:54.737Z,31.48
2022-08-25T07:07:44.414Z,32.10
2022-08-25T07:10:32.191Z,29.40
2022-08-25T07:13:19.897Z,30.48
2022-08-25T07:16:11.314Z,26.80
2022-08-25T07:19:00.284Z,27.55
2022-08-25T07:21:50.612Z,24.63
2022-08-25T07:24:38.641Z,26.83
2022-08-25T07:27:26.597Z,23.52
2022-08-25T07:30:14.709Z,24.38
2022-08-25T07:33:06.813Z,23.38
2022-08-25T07:35:54.297Z,21.67
2022-08-25T07:38:42.036Z,24.15
2022-08-25T07:41:30.834Z,21.63
2022-08-25T07:44:21.447Z,19.95
2022-08-25T07:47:12.160Z,18.85
2022-08-25T07:50:01.579Z,16.58
2022-08-25T07:52:49.763Z,17.25
2022-08-25T07:55:42.124Z,16.67
2022-08-25T07:58:32.735Z,19.83
2022-08-25T08:01:25.642Z,17.30
2022-08-25T08:04:13.484Z,18.48
2022-08-25T08:07:11.946Z,14.27
2022-08-25T08:10:28.187Z,13.52
2022-08-25T08:13:08.145Z,12.27
2022-08-25T08:15:56.160Z,16.45
2022-08-25T08:18:44.240Z,19.55
2022-08-25T08:21:34.332Z,13.00
2022-08-25T08:24:40.613Z,14.45
2022-08-25T08:27:30.746Z,16.67
2022-08-25T08:30:18.679Z,13.32
2022-08-25T08:33:10.150Z,12.48
2022-08-25T08:36:05.123Z,15.30
2022-08-25T08:38:53.993Z,12.43
2022-08-25T08:42:16.800Z,19.35
2022-08-25T08:45:21.280Z,12.52
2022-08-25T08:48:28.246Z,15.27
2022-08-25T08:51:23.577Z,13.57
2022-08-25T08:54:18.619Z,13.35
2022-08-25T08:57:13.826Z,11.07
2022-08-25T09:00:04.784Z,10.65
2022-08-25T09:02:58.571Z,17.20
2022-08-25T09:05:50.322Z,11.93
2022-08-25T09:08:39.105Z,10.25
2022-08-25T09:11:46.033Z,9.68
2022-08-25T09:14:53.822Z,13.13
2022-08-25T09:18:08.456Z,15.98
2022-08-25T09:21:09.604Z,11.98
2022-08-25T09:24:11.845Z,9.68
2022-08-25T09:27:10.894Z,9.68
2022-08-25T09:30:05.193Z,12.38
2022-08-25T09:33:02.272Z,10.20
2022-08-25T09:35:51.901Z,12.50
2022-08-25T09:38:42.094Z,11.52
2022-08-25T09:41:51.305Z,11.95
2022-08-25T09:44:43.637Z,10.10
2022-08-25T09:47:33.121Z,14.00
2022-08-25T09:50:22.356Z,12.35
2022-08-25T09:53:17.601Z,12.57
2022-08-25T09:56:11.359Z,15.52
2022-08-25T09:59:21.339Z,18.42
2022-08-25T10:02:25.913Z,11.63
2022-08-25T10:05:27.773Z,12.18
2022-08-25T10:08:27.173Z,13.65
2022-08-25T10:11:31.724Z,15.60
2022-08-25T10:14:27.585Z,15.20
2022-08-25T10:17:27.500Z,12.45
2022-08-25T10:20:21.461Z,16.60
2022-08-25T10:23:14.935Z,12.93
2022-08-25T10:26:10.005Z,13.75
2022-08-25T10:29:13.269Z,18.05
2022-08-25T10:32:10.209Z,18.05
2022-08-25T10:35:04.771Z,16.65
2022-08-25T10:38:11.022Z,13.35
2022-08-25T10:41:10.069Z,12.48
2022-08-25T10:44:29.127Z,15.23
2022-08-25T10:47:42.022Z,14.68
2022-08-25T10:50:36.275Z,12.35
2022-08-25T10:53:35.759Z,10.75
2022-08-25T10:56:30.297Z,15.77
2022-08-25T10:59:31.678Z,11.82
2022-08-25T11:03:05.262Z,15.15
2022-08-25T11:05:56.569Z,13.98
2022-08-25T11:08:49.090Z,14.07
2022-08-25T11:11:43.400Z,11.98
2022-08-25T11:14:36.424Z,13.30
2022-08-25T11:17:27.236Z,8.80
2022-08-25T11:20:19.923Z,20.52
2022-08-25T11:23:21.328Z,18.25
2022-08-25T11:26:13.627Z,14.57
2022-08-25T11:29:12.002Z,18.38
2022-08-25T11:32:01.686Z,13.68
2022-08-25T11:34:49.646Z,14.75
2022-08-25T11:37:45.840Z,12.70
2022-08-25T11:40:55.672Z,18.20
2022-08-25T11:44:04.575Z,21.67
2022-08-25T11:47:21.163Z,16.98
2022-08-25T11:50:25.936Z,16.60
2022-08-25T11:53:26.587Z,12.40
2022-08-25T11:56:34.696Z,17.75
2022-08-25T12:00:05.852Z,19.40
2022-08-25T12:02:58.456Z,23.58
2022-08-25T12:06:13.695Z,25.50
2022-08-25T12:09:21.129Z,22.15
2022-08-25T12:12:31.299Z,26.80
2022-08-25T12:15:23.656Z,19.33
2022-08-25T12:18:16.429Z,20.60
2022-08-25T12:21:16.237Z,21.75
2022-08-25T12:24:12.126Z,23.50
2022-08-25T12:27:06.212Z,21.40
2022-08-25T12:30:01.073Z,23.33
2022-08-25T12:33:02.001Z,27.27
2022-08-25T12:35:58.520Z,20.83
2022-08-25T12:38:52.041Z,24.50
2022-08-25T12:41:54.974Z,23.27
2022-08-25T12:44:47.231Z,28.90
2022-08-25T12:47:35.652Z,17.83
2022-08-25T12:50:29.512Z,26.08
2022-08-25T12:53:24.691Z,21.67
2022-08-25T12:56:29.076Z,16.35
2022-08-25T12:59:20.220Z,25.13
2022-08-25T13:02:51.676Z,22.52
2022-08-25T13:06:00.314Z,17.52
2022-08-25T13:09:34.903Z,29.05
2022-08-25T13:12:28.705Z,34.17
2022-08-25T13:15:28.964Z,23.65
2022-08-25T13:18:22.087Z,30.35
2022-08-25T13:21:16.132Z,23.25
2022-08-25T13:24:10.504Z,28.55
2022-08-25T13:27:01.175Z,24.33
2022-08-25T13:29:53.375Z,14.90
2022-08-25T13:32:41.596Z,26.67
2022-08-25T13:35:32.990Z,16.90
2022-08-25T13:38:20.170Z,14.77
2022-08-25T13:41:10.602Z,27.13
2022-08-25T13:44:01.057Z,19.17
2022-08-25T13:47:05.888Z,17.00
2022-08-25T13:49:57.672Z,28.40
2022-08-25T13:52:50.423Z,23.20
2022-08-25T13:55:51.381Z,20.35
2022-08-25T13:58:46.412Z,21.63
2022-08-25T14:01:49.276Z,20.45
2022-08-25T14:04:52.862Z,21.65
2022-08-25T14:07:46.499Z,24.30
2022-08-25T14:10:40.881Z,14.43
2022-08-25T14:13:33.142Z,29.48
2022-08-25T14:16:25.528Z,24.83
2022-08-25T14:19:20.269Z,23.10
2022-08-25T14:22:08.282Z,24.77
2022-08-25T14:24:56.776Z,29.10
2022-08-25T14:28:06.480Z,22.92
2022-08-25T14:30:57.310Z,23.42
2022-08-25T14:33:53.880Z,25.75
2022-08-25T14:36:42.369Z,23.90
2022-08-25T14:39:32.673Z,22.95
2022-08-25T14:42:20.492Z,20.35
2022-08-25T14:45:12.789Z,29.73
2022-08-25T14:48:04.517Z,24.33
2022-08-25T14:51:01.584Z,19.70
2022-08-25T14:53:50.022Z,23.05
2022-08-25T14:56:39.030Z,26.35
2022-08-25T14:59:31.641Z,19.40
2022-08-25T15:02:21.199Z,18.50
2022-08-25T15:05:12.576Z,25.30
2022-08-25T15:08:19.672Z,18.25
2022-08-25T15:11:09.329Z,23.52
2022-08-25T15:13:58.423Z,26.98
2022-08-25T15:16:52.122Z,23.45
2022-08-25T15:19:40.165Z,19.33
2022-08-25T15:22:28.365Z,15.73
2022-08-25T15:25:18.349Z,16.45
2022-08-25T15:28:09.781Z,18.17
2022-08-25T15:30:57.867Z,18.90
2022-08-25T15:33:46.579Z,22.77
2022-08-25T15:36:36.225Z,16.40
2022-08-25T15:39:25.991Z,23.55
2022-08-25T15:42:16.477Z,20.40
2022-08-25T15:45:05.234Z,20.42
2022-08-25T15:47:53.888Z,20.67
2022-08-25T15:50:41.820Z,19.20
2022-08-25T15:53:30.313Z,22.77
2022-08-25T15:56:26.904Z,21.08
2022-08-25T15:59:16.590Z,23.45
2022-08-25T16:02:04.910Z,22.65
2022-08-25T16:05:03.152Z,17.55
2022-08-25T16:07:52.717Z,18.85
2022-08-25T16:10:43.001Z,15.05
2022-08-25T16:13:30.944Z,17.85
2022-08-25T16:16:22.579Z,15.32
2022-08-25T16:19:11.513Z,20.60
2022-08-25T16:22:00.104Z,21.95
2022-08-25T16:24:48.086Z,17.90
2022-08-25T16:27:38.695Z,15.55
2022-08-25T16:30:26.995Z,17.77
2022-08-25T16:33:17.115Z,14.10
2022-08-25T16:36:07.120Z,19.70
2022-08-25T16:38:55.188Z,23.85
2022-08-25T16:41:43.379Z,16.45
2022-08-25T16:44:31.020Z,18.23
2022-08-25T16:47:20.343Z,16.50
2022-08-25T16:50:14.374Z,23.25
2022-08-25T16:53:19.682Z,17.67
2022-08-25T16:56:11.723Z,14.52
2022-08-25T16:59:01.781Z,13.40
2022-08-25T17:01:49.608Z,15.45
2022-08-25T17:04:38.607Z,16.38
2022-08-25T17:07:27.800Z,20.45
2022-08-25T17:10:15.555Z,16.38
2022-08-25T17:13:05.623Z,16.25
2022-08-25T17:15:53.531Z,14.90
2022-08-25T17:18:42.099Z,11.57
2022-08-25T17:21:34.124Z,11.35
2022-08-25T17:24:29.398Z,14.07
2022-08-25T17:27:21.123Z,16.60
2022-08-25T17:30:10.367Z,14.80
2022-08-25T17:32:58.425Z,17.38
2022-08-25T17:35:50.862Z,17.70
2022-08-25T17:38:41.831Z,10.82
2022-08-25T17:41:31.265Z,15.57
2022-08-25T17:44:19.409Z,15.80
2022-08-25T17:47:07.668Z,13.93
2022-08-25T17:49:56.059Z,18.17
2022-08-25T17:52:43.948Z,13.30
2022-08-25T17:55:32.321Z,10.70
2022-08-25T17:58:22.497Z,13.35
2022-08-25T18:01:17.048Z,10.38
2022-08-25T18:04:06.377Z,13.10
2022-08-25T18:07:06.001Z,11.43
2022-08-25T18:09:54.183Z,10.75
2022-08-25T18:12:43.619Z,13.85
2022-08-25T18:15:34.614Z,15.32
2022-08-25T18:18:24.221Z,9.48
2022-08-25T18:21:14.930Z,15.95
2022-08-25T18:24:03.394Z,15.27
2022-08-25T18:26:51.390Z,9.32
2022-08-25T18:29:40.777Z,12.73
2022-08-25T18:32:30.430Z,10.98
2022-08-25T18:35:21.661Z,15.60
2022-08-25T18:38:32.081Z,13.35
2022-08-25T18:41:20.266Z,15.13
2022-08-25T18:44:08.603Z,14.35
2022-08-25T18:46:58.622Z,14.30
2022-08-25T18:49:47.721Z,10.23
2022-08-25T18:52:35.853Z,11.23
2022-08-25T18:55:24.149Z,10.55
2022-08-25T18:58:12.323Z,13.07
2022-08-25T19:01:00.930Z,8.32
2022-08-25T19:03:48.496Z,11.13
2022-08-25T19:06:38.223Z,10.30
2022-08-25T19:09:25.760Z,14.07
2022-08-25T19:12:22.495Z,10.30
2022-08-25T19:15:11.549Z,10.77
2022-08-25T19:18:00.395Z,17.05
2022-08-25T19:20:48.077Z,14.43
2022-08-25T19:23:38.217Z,10.77
2022-08-25T19:26:27.938Z,14.43
2022-08-25T19:29:18.498Z,16.73
2022-08-25T19:32:06.928Z,11.35
2022-08-25T19:34:55.510Z,17.38
2022-08-25T19:37:43.295Z,16.40
2022-08-25T19:40:33.304Z,13.82
2022-08-25T19:43:22.656Z,15.05
2022-08-25T19:46:11.129Z,16.58
2022-08-25T19:49:03.717Z,12.40
2022-08-25T19:51:56.843Z,13.43
2022-08-25T19:54:47.030Z,17.25
2022-08-25T19:57:42.647Z,13.35
2022-08-25T20:00:35.876Z,15.27
2022-08-25T20:03:25.182Z,17.35
2022-08-25T20:06:16.001Z,13.82
2022-08-25T20:09:05.154Z,18.52
2022-08-25T20:11:53.156Z,22.60
2022-08-25T20:14:42.514Z,18.95
2022-08-25T20:17:33.686Z,18.00
2022-08-25T20:20:22.856Z,20.02
2022-08-25T20:23:28.375Z,26.02
2022-08-25T20:26:17.001Z,19.83
2022-08-25T20:29:06.173Z,18.45
2022-08-25T20:31:55.061Z,19.90
2022-08-25T20:37:37.456Z,16.75
2022-08-25T20:40:28.492Z,18.95
2022-08-25T20:43:16.463Z,18.70
2022-08-25T20:46:05.370Z,17.50
2022-08-25T20:48:54.701Z,19.13
2022-08-25T20:51:42.362Z,15.70
2022-08-25T20:54:30.778Z,18.08
2022-08-25T20:57:25.684Z,21.05
2022-08-25T21:00:15.022Z,16.00
2022-08-25T21:03:03.504Z,27.60
2022-08-25T21:05:53.508Z,18.55
2022-08-25T21:08:46.549Z,25.42
2022-08-25T21:11:34.920Z,21.27
2022-08-25T21:14:24.290Z,21.38
2022-08-25T21:17:14.046Z,18.13
2022-08-25T21:20:01.590Z,20.98
2022-08-25T21:22:51.948Z,18.08
2022-08-25T21:25:42.217Z,22.83
2022-08-25T21:28:30.254Z,19.30
2022-08-25T21:31:20.658Z,23.25
2022-08-25T21:34:08.272Z,19.15
2022-08-25T21:36:58.083Z,24.02
2022-08-25T21:39:47.583Z,24.63
2022-08-25T21:42:35.468Z,23.10
2022-08-25T21:45:23.146Z,21.45
2022-08-25T21:48:11.508Z,19.67
2022-08-25T21:51:06.366Z,24.92
2022-08-25T21:54:08.908Z,23.65
2022-08-25T21:57:00.934Z,16.05
2022-08-25T21:59:48.792Z,17.58
2022-08-25T22:02:36.710Z,20.58
2022-08-25T22:05:24.482Z,20.65
2022-08-25T22:08:12.210Z,19.00
2022-08-25T22:11:00.411Z,25.90
2022-08-25T22:13:50.428Z,19.67
2022-08-25T22:16:38.914Z,18.30
2022-08-25T22:19:26.779Z,23.08
2022-08-25T22:22:15.843Z,18.73
2022-08-25T22:25:08.954Z,19.23
2022-08-25T22:27:57.287Z,22.50
2022-08-25T22:30:46.937Z,23.60
2022-08-25T22:33:36.322Z,21.45
2022-08-25T22:36:30.752Z,19.92
2022-08-25T22:39:18.390Z,17.90
2022-08-25T22:42:08.900Z,20.10
2022-08-25T22:44:57.127Z,18.73
2022-08-25T22:47:46.218Z,17.67
2022-08-25T22:50:36.132Z,15.98
2022-08-25T22:53:24.326Z,18.52
2022-08-25T22:56:30.878Z,16.55
2022-08-25T22:59:19.317Z,16.92
2022-08-25T23:02:10.241Z,14.05
2022-08-25T23:05:00.857Z,13.95
2022-08-25T23:07:49.733Z,21.58
2022-08-25T23:10:37.755Z,22.60
2022-08-25T23:13:34.403Z,13.32
2022-08-25T23:16:22.442Z,19.27
2022-08-25T23:19:11.318Z,18.95
2022-08-25T23:22:12.739Z,16.67
2022-08-25T23:25:04.059Z,19.40
2022-08-25T23:27:52.202Z,13.40
2022-08-25T23:30:44.768Z,16.15
2022-08-25T23:33:32.668Z,12.95
2022-08-25T23:36:21.867Z,13.10
2022-08-25T23:39:11.290Z,18.65
2022-08-25T23:41:58.826Z,16.65
2022-08-25T23:44:47.947Z,16.20
2022-08-25T23:47:35.570Z,16.55
2022-08-25T23:50:24.102Z,13.80
2022-08-25T23:53:15.780Z,12.90
2022-08-25T23:56:06.537Z,13.07
2022-08-25T23:58:54.321Z,13.57
